(°C)
22°
21°
20°
20°
19°
19°
18°
(°C)
21°
20°
19°
19°
19°
18°
18°
NNE
NNE
NNE
NNE
N
N
N
(km/h)
19-27
18-25
16-23
14-22
12-21
11-19
10-18
(mm)
0
0
0
0
0
0
0
(%)
0
0
0
0
0
0
0

Elevación del sol

/ -2.1°
sun-icon
UV 5
07:26
18:55
Gibosa creciente (144°)
17:38
04:36

METAR a Orlando (KORL)

Hora Condiciones Temperatura/
Punto de condensación
Viento Visibilidad Tiempo Nubes Presión Cambiar Bruto
VFR 25.6°C / 15°C 50º 11kt >10km - Clear 1016 - KORL 172153Z 05011KT 10SM CLR 26/15 A3000 RMK AO2 SLP163 T02560150
VFR 26.7°C / 15.6°C 50º 10kt >10km - Clear 1015 - KORL 172053Z 05010KT 10SM CLR 27/16 A2999 RMK AO2 SLP157 T02670156 55005
VFR 27.8°C / 16.7°C 60º 11kt >10km - Clear 1015 - KORL 171953Z 06011KT 10SM CLR 28/17 A2998 RMK AO2 SLP153 T02780167
VFR 28.3°C / 16.7°C 20º 8kt >10km - Few Clouds 4300ft 1015 - KORL 171853Z 02008KT 10SM FEW043 28/17 A2998 RMK AO2 SLP155 T02830167
VFR 27.8°C / 17.8°C 40º 7kt >10km - Few Clouds 3800ft 1016 - KORL 171753Z 04007KT 10SM FEW038 28/18 A3000 RMK AO2 SLP161 T02780178 10278 20200 58012
VFR 26.7°C / 16.7°C 30º 9kt >10km - Clear 1016 - KORL 171653Z 03009KT 10SM CLR 27/17 A3002 RMK AO2 SLP169 T02670167
VFR 25°C / 16.7°C 30º 7kt >10km - Few Clouds 3500ft 1017 - KORL 171553Z 03007KT 10SM FEW035 25/17 A3004 RMK AO2 SLP174 T02500167
VFR 22.8°C / 15°C 350º 5kt >10km - Overcast 3600ft 1017 - KORL 171453Z 35005KT 10SM OVC036 23/15 A3004 RMK AO2 SLP174 T02280150 50010
VFR 21.1°C / 13.3°C 340º 8kt >10km - Few Clouds 4700ft
Broken Clouds 6000ft
1017 - KORL 171353Z 34008KT 10SM FEW047 BKN060 21/13 A3004 RMK AO2 SLP175 T02110133
VFR 20.6°C / 12.8°C 360º 8kt >10km - Broken Clouds 5500ft 1017 - KORL 171253Z 36008KT 10SM BKN055 21/13 A3003 RMK AO2 SLP171 T02060128
VFR 20.6°C / 13.3°C 10º 8kt >10km - Scattered Clouds 3400ft 1016 - KORL 171153Z 01008KT 10SM SCT034 21/13 A3000 RMK AO2 SLP163 T02060133 10256 20206 51017
VFR 21.1°C / 13.3°C 360º 11kt >10km - Few Clouds 3700ft
Broken Clouds 7000ft
Overcast 8000ft
1015 - KORL 171053Z AUTO 36011KT 10SM FEW037 BKN070 OVC080 21/13 A2999 RMK AO2 SLP157 T02110133
VFR 21.7°C / 13.9°C 20º 10kt >10km - Scattered Clouds 2600ft
Broken Clouds 3700ft
Overcast 8000ft
- KORL 171039Z AUTO 02010KT 10SM SCT026 BKN037 OVC080 22/14 A2999 RMK AO2 T02170139
MVFR 22.2°C / 13.9°C 360º 14kt Gust 18kt >10km - Overcast 2400ft 1015 - KORL 170953Z AUTO 36014G18KT 10SM OVC024 22/14 A2997 RMK AO2 SLP151 T02220139
MVFR 23.9°C / 19.4°C 20º 11kt >10km - Overcast 1700ft 1014 - KORL 170853Z AUTO 02011KT 10SM OVC017 24/19 A2995 RMK AO2 SLP145 T02390194 53002
MVFR 25°C / 21.7°C 360º 9kt >10km - Few Clouds 1700ft
Overcast 2200ft
1014 - KORL 170753Z AUTO 36009KT 10SM FEW017 OVC022 25/22 A2994 RMK AO2 SLP140 T02500217
MVFR 25.6°C / 23.3°C 320º 5kt >10km - Broken Clouds 2000ft 1014 - KORL 170653Z AUTO 32005KT 10SM BKN020 26/23 A2994 RMK AO2 SLP141 T02560233
VFR 25°C / 22.8°C variable 0kt >10km - Few Clouds 5500ft 1014 - KORL 170553Z AUTO 00000KT 10SM FEW055 25/23 A2995 RMK AO2 SLP143 T02500228 10278 20250 58006
VFR 25.6°C / 22.8°C variable 0kt >10km - Scattered Clouds 2600ft
Scattered Clouds 3200ft
Broken Clouds 5500ft
- KORL 170536Z AUTO 00000KT 10SM SCT026 SCT032 BKN055 26/23 A2995 RMK AO2 T02560228
MVFR 25.6°C / 22.8°C 290º 3kt >10km - Broken Clouds 2500ft - KORL 170510Z AUTO 29003KT 10SM BKN025 26/23 A2996 RMK AO2 T02560228
VFR 25.6°C / 22.8°C 290º 3kt >10km - Few Clouds 2300ft
Few Clouds 10000ft
1014 - KORL 170453Z AUTO 29003KT 10SM FEW023 FEW100 26/23 A2996 RMK AO2 SLP148 T02560228 403110217
VFR 26.1°C / 22.2°C 280º 4kt >10km - Clear 1014 - KORL 170353Z AUTO 28004KT 10SM CLR 26/22 A2996 RMK AO2 SLP148 T02610222
VFR 26.7°C / 20.6°C variable 0kt >10km - Broken Clouds 5500ft 1014 - KORL 170253Z AUTO 00000KT 10SM BKN055 27/21 A2997 RMK AO2 SLP149 T02670206 51016
VFR 26.1°C / 20.6°C variable 0kt >10km - Broken Clouds 5000ft 1014 - KORL 170153Z AUTO 00000KT 10SM BKN050 26/21 A2996 RMK AO2 SLP146 T02610206

VFR

25.6°C / 15°C

[Más]
Viento 50º 11kt
Visibilidad >10km
Tiempo -
Nubes Clear
Presión 1016
Cambiar -
Bruto KORL 172153Z 05011KT 10SM CLR 26/15 A3000 RMK AO2 SLP163 T02560150

VFR

26.7°C / 15.6°C

[Más]
Viento 50º 10kt
Visibilidad >10km
Tiempo -
Nubes Clear
Presión 1015
Cambiar -
Bruto KORL 172053Z 05010KT 10SM CLR 27/16 A2999 RMK AO2 SLP157 T02670156 55005

VFR

27.8°C / 16.7°C

[Más]
Viento 60º 11kt
Visibilidad >10km
Tiempo -
Nubes Clear
Presión 1015
Cambiar -
Bruto KORL 171953Z 06011KT 10SM CLR 28/17 A2998 RMK AO2 SLP153 T02780167

VFR

28.3°C / 16.7°C

[Más]
Viento 20º 8kt
Visibilidad >10km
Tiempo -
Nubes Few Clouds 4300ft
Presión 1015
Cambiar -
Bruto KORL 171853Z 02008KT 10SM FEW043 28/17 A2998 RMK AO2 SLP155 T02830167

VFR

27.8°C / 17.8°C

[Más]
Viento 40º 7kt
Visibilidad >10km
Tiempo -
Nubes Few Clouds 3800ft
Presión 1016
Cambiar -
Bruto KORL 171753Z 04007KT 10SM FEW038 28/18 A3000 RMK AO2 SLP161 T02780178 10278 20200 58012

VFR

26.7°C / 16.7°C

[Más]
Viento 30º 9kt
Visibilidad >10km
Tiempo -
Nubes Clear
Presión 1016
Cambiar -
Bruto KORL 171653Z 03009KT 10SM CLR 27/17 A3002 RMK AO2 SLP169 T02670167

VFR

25°C / 16.7°C

[Más]
Viento 30º 7kt
Visibilidad >10km
Tiempo -
Nubes Few Clouds 3500ft
Presión 1017
Cambiar -
Bruto KORL 171553Z 03007KT 10SM FEW035 25/17 A3004 RMK AO2 SLP174 T02500167

VFR

22.8°C / 15°C

[Más]
Viento 350º 5kt
Visibilidad >10km
Tiempo -
Nubes Overcast 3600ft
Presión 1017
Cambiar -
Bruto KORL 171453Z 35005KT 10SM OVC036 23/15 A3004 RMK AO2 SLP174 T02280150 50010

VFR

21.1°C / 13.3°C

[Más]
Viento 340º 8kt
Visibilidad >10km
Tiempo -
Nubes Few Clouds 4700ft
Broken Clouds 6000ft
Presión 1017
Cambiar -
Bruto KORL 171353Z 34008KT 10SM FEW047 BKN060 21/13 A3004 RMK AO2 SLP175 T02110133

VFR

20.6°C / 12.8°C

[Más]
Viento 360º 8kt
Visibilidad >10km
Tiempo -
Nubes Broken Clouds 5500ft
Presión 1017
Cambiar -
Bruto KORL 171253Z 36008KT 10SM BKN055 21/13 A3003 RMK AO2 SLP171 T02060128

VFR

20.6°C / 13.3°C

[Más]
Viento 10º 8kt
Visibilidad >10km
Tiempo -
Nubes Scattered Clouds 3400ft
Presión 1016
Cambiar -
Bruto KORL 171153Z 01008KT 10SM SCT034 21/13 A3000 RMK AO2 SLP163 T02060133 10256 20206 51017

VFR

21.1°C / 13.3°C

[Más]
Viento 360º 11kt
Visibilidad >10km
Tiempo -
Nubes Few Clouds 3700ft
Broken Clouds 7000ft
Overcast 8000ft
Presión 1015
Cambiar -
Bruto KORL 171053Z AUTO 36011KT 10SM FEW037 BKN070 OVC080 21/13 A2999 RMK AO2 SLP157 T02110133

VFR

21.7°C / 13.9°C

[Más]
Viento 20º 10kt
Visibilidad >10km
Tiempo -
Nubes Scattered Clouds 2600ft
Broken Clouds 3700ft
Overcast 8000ft
Presión
Cambiar -
Bruto KORL 171039Z AUTO 02010KT 10SM SCT026 BKN037 OVC080 22/14 A2999 RMK AO2 T02170139

MVFR

22.2°C / 13.9°C

[Más]
Viento 360º 14kt Gust 18kt
Visibilidad >10km
Tiempo -
Nubes Overcast 2400ft
Presión 1015
Cambiar -
Bruto KORL 170953Z AUTO 36014G18KT 10SM OVC024 22/14 A2997 RMK AO2 SLP151 T02220139

MVFR

23.9°C / 19.4°C

[Más]
Viento 20º 11kt
Visibilidad >10km
Tiempo -
Nubes Overcast 1700ft
Presión 1014
Cambiar -
Bruto KORL 170853Z AUTO 02011KT 10SM OVC017 24/19 A2995 RMK AO2 SLP145 T02390194 53002

MVFR

25°C / 21.7°C

[Más]
Viento 360º 9kt
Visibilidad >10km
Tiempo -
Nubes Few Clouds 1700ft
Overcast 2200ft
Presión 1014
Cambiar -
Bruto KORL 170753Z AUTO 36009KT 10SM FEW017 OVC022 25/22 A2994 RMK AO2 SLP140 T02500217

MVFR

25.6°C / 23.3°C

[Más]
Viento 320º 5kt
Visibilidad >10km
Tiempo -
Nubes Broken Clouds 2000ft
Presión 1014
Cambiar -
Bruto KORL 170653Z AUTO 32005KT 10SM BKN020 26/23 A2994 RMK AO2 SLP141 T02560233

VFR

25°C / 22.8°C

[Más]
Viento variable 0kt
Visibilidad >10km
Tiempo -
Nubes Few Clouds 5500ft
Presión 1014
Cambiar -
Bruto KORL 170553Z AUTO 00000KT 10SM FEW055 25/23 A2995 RMK AO2 SLP143 T02500228 10278 20250 58006

VFR

25.6°C / 22.8°C

[Más]
Viento variable 0kt
Visibilidad >10km
Tiempo -
Nubes Scattered Clouds 2600ft
Scattered Clouds 3200ft
Broken Clouds 5500ft
Presión
Cambiar -
Bruto KORL 170536Z AUTO 00000KT 10SM SCT026 SCT032 BKN055 26/23 A2995 RMK AO2 T02560228

MVFR

25.6°C / 22.8°C

[Más]
Viento 290º 3kt
Visibilidad >10km
Tiempo -
Nubes Broken Clouds 2500ft
Presión
Cambiar -
Bruto KORL 170510Z AUTO 29003KT 10SM BKN025 26/23 A2996 RMK AO2 T02560228

VFR

25.6°C / 22.8°C

[Más]
Viento 290º 3kt
Visibilidad >10km
Tiempo -
Nubes Few Clouds 2300ft
Few Clouds 10000ft
Presión 1014
Cambiar -
Bruto KORL 170453Z AUTO 29003KT 10SM FEW023 FEW100 26/23 A2996 RMK AO2 SLP148 T02560228 403110217

VFR

26.1°C / 22.2°C

[Más]
Viento 280º 4kt
Visibilidad >10km
Tiempo -
Nubes Clear
Presión 1014
Cambiar -
Bruto KORL 170353Z AUTO 28004KT 10SM CLR 26/22 A2996 RMK AO2 SLP148 T02610222

VFR

26.7°C / 20.6°C

[Más]
Viento variable 0kt
Visibilidad >10km
Tiempo -
Nubes Broken Clouds 5500ft
Presión 1014
Cambiar -
Bruto KORL 170253Z AUTO 00000KT 10SM BKN055 27/21 A2997 RMK AO2 SLP149 T02670206 51016

VFR

26.1°C / 20.6°C

[Más]
Viento variable 0kt
Visibilidad >10km
Tiempo -
Nubes Broken Clouds 5000ft
Presión 1014
Cambiar -
Bruto KORL 170153Z AUTO 00000KT 10SM BKN050 26/21 A2996 RMK AO2 SLP146 T02610206

Imágenes actuales de satélite para Orlando, Estados Unidos

El marcador de lugar se coloca en Orlando. [Más]

La imagen de satélite en tiempo real se aprovecha de la combinación de bandas de la luz visible y de la luz infrarrojo. Como se puede detectar cambios de temperaturas atreves de la banda infrarrojo, la imagen no está escura de noche. No obstante, la niebla y las nubes bajas son apenas visibles en las imágenes infrarrojo como las diferencias de temperaturas entre el suelo y la niebla son muy pequeñas. Por eso son casi invisibles durante la noche. Las imágenes de satélite del Meteosat (Europa) son actualizados en tiempo real cada 5 minutos. Las imágenes del GOES-16/GOES-17 (América del Norte y América del Sur) y Himawari (Asia) son actualizados cada 10 minutos.

Radar y precipitación nowcast para Orlando

llovizna
Leve
Moderado
Fuerte
Muy fuerte
Granizo

El marcador de lugar se coloca en Orlando. Esta animación muestra lo radar de precipitaciones hasta la última hora, así como la 1h previsión. Las lloviznas o las nevadas ligeras pueden ser invisibles para el radar. La intensidad de la precipitación está codificada por colores, que van del azul claro al naranja.